sensor_id;sensor_type;location;lat;lon;timestamp;P1;durP1;ratioP1;P2;durP2;ratioP2
75608;SDS011;64194;51.044;13.780;2023-04-25T00:02:24;5.15;;;2.70;;
75608;SDS011;64194;51.044;13.780;2023-04-25T00:06:26;5.15;;;2.65;;
75608;SDS011;64194;51.044;13.780;2023-04-25T00:10:28;6.90;;;2.55;;
75608;SDS011;64194;51.044;13.780;2023-04-25T00:14:29;5.72;;;2.60;;
75608;SDS011;64194;51.044;13.780;2023-04-25T00:18:31;6.53;;;2.55;;
75608;SDS011;64194;51.044;13.780;2023-04-25T00:22:34;4.35;;;2.20;;
75608;SDS011;64194;51.044;13.780;2023-04-25T00:26:38;5.32;;;2.50;;
75608;SDS011;64194;51.044;13.780;2023-04-25T00:30:40;5.75;;;2.67;;
75608;SDS011;64194;51.044;13.780;2023-04-25T00:34:42;6.28;;;2.90;;
75608;SDS011;64194;51.044;13.780;2023-04-25T00:38:43;6.45;;;2.35;;
75608;SDS011;64194;51.044;13.780;2023-04-25T00:42:45;5.45;;;2.38;;
75608;SDS011;64194;51.044;13.780;2023-04-25T00:46:48;5.78;;;3.30;;
75608;SDS011;64194;51.044;13.780;2023-04-25T00:50:54;7.80;;;3.05;;
75608;SDS011;64194;51.044;13.780;2023-04-25T00:54:58;5.65;;;2.85;;
75608;SDS011;64194;51.044;13.780;2023-04-25T00:59:00;5.63;;;3.00;;
75608;SDS011;64194;51.044;13.780;2023-04-25T01:03:02;7.10;;;2.95;;
75608;SDS011;64194;51.044;13.780;2023-04-25T01:07:05;6.93;;;3.70;;
75608;SDS011;64194;51.044;13.780;2023-04-25T01:20:51;6.57;;;3.38;;
75608;SDS011;64194;51.044;13.780;2023-04-25T01:24:54;8.13;;;3.60;;
75608;SDS011;64194;51.044;13.780;2023-04-25T01:28:57;6.95;;;3.20;;
75608;SDS011;64194;51.044;13.780;2023-04-25T01:32:59;6.90;;;3.45;;
75608;SDS011;64194;51.044;13.780;2023-04-25T01:37:02;7.65;;;3.47;;
75608;SDS011;64194;51.044;13.780;2023-04-25T01:50:33;6.68;;;3.08;;
75608;SDS011;64194;51.044;13.780;2023-04-25T01:54:34;7.57;;;3.85;;
75608;SDS011;64194;51.044;13.780;2023-04-25T01:58:37;5.85;;;3.40;;
75608;SDS011;64194;51.044;13.780;2023-04-25T02:03:01;6.68;;;3.28;;
75608;SDS011;64194;51.044;13.780;2023-04-25T02:07:07;7.38;;;3.78;;
75608;SDS011;64194;51.044;13.780;2023-04-25T02:11:20;6.18;;;3.42;;
75608;SDS011;64194;51.044;13.780;2023-04-25T02:15:42;6.53;;;3.88;;
75608;SDS011;64194;51.044;13.780;2023-04-25T02:19:49;7.03;;;3.53;;
75608;SDS011;64194;51.044;13.780;2023-04-25T02:23:51;8.98;;;4.03;;
75608;SDS011;64194;51.044;13.780;2023-04-25T02:27:54;8.85;;;4.00;;
75608;SDS011;64194;51.044;13.780;2023-04-25T02:31:56;7.20;;;4.18;;
75608;SDS011;64194;51.044;13.780;2023-04-25T02:35:57;7.20;;;3.72;;
75608;SDS011;64194;51.044;13.780;2023-04-25T02:39:59;8.82;;;4.28;;
75608;SDS011;64194;51.044;13.780;2023-04-25T02:54:49;7.80;;;3.97;;
75608;SDS011;64194;51.044;13.780;2023-04-25T03:03:42;9.55;;;4.25;;
75608;SDS011;64194;51.044;13.780;2023-04-25T03:07:44;8.30;;;3.72;;
75608;SDS011;64194;51.044;13.780;2023-04-25T03:21:31;10.25;;;4.03;;
75608;SDS011;64194;51.044;13.780;2023-04-25T03:25:34;8.82;;;4.03;;
75608;SDS011;64194;51.044;13.780;2023-04-25T03:29:36;7.30;;;3.97;;
75608;SDS011;64194;51.044;13.780;2023-04-25T03:33:38;8.05;;;4.30;;
75608;SDS011;64194;51.044;13.780;2023-04-25T03:37:40;9.25;;;4.15;;
75608;SDS011;64194;51.044;13.780;2023-04-25T03:46:19;8.15;;;3.85;;
75608;SDS011;64194;51.044;13.780;2023-04-25T03:50:22;10.30;;;4.25;;
75608;SDS011;64194;51.044;13.780;2023-04-25T03:54:24;7.85;;;4.22;;
75608;SDS011;64194;51.044;13.780;2023-04-25T03:58:32;10.00;;;4.78;;
75608;SDS011;64194;51.044;13.780;2023-04-25T04:02:34;7.30;;;4.20;;
75608;SDS011;64194;51.044;13.780;2023-04-25T04:06:37;9.25;;;4.28;;
75608;SDS011;64194;51.044;13.780;2023-04-25T04:10:47;7.90;;;4.38;;
75608;SDS011;64194;51.044;13.780;2023-04-25T04:29:09;8.32;;;4.88;;
75608;SDS011;64194;51.044;13.780;2023-04-25T04:44:55;10.93;;;5.00;;
75608;SDS011;64194;51.044;13.780;2023-04-25T04:48:59;7.93;;;4.80;;
75608;SDS011;64194;51.044;13.780;2023-04-25T04:53:36;9.90;;;4.68;;
75608;SDS011;64194;51.044;13.780;2023-04-25T05:02:39;8.93;;;4.20;;
75608;SDS011;64194;51.044;13.780;2023-04-25T05:16:24;8.10;;;4.40;;
75608;SDS011;64194;51.044;13.780;2023-04-25T05:20:49;9.60;;;4.43;;
75608;SDS011;64194;51.044;13.780;2023-04-25T05:29:21;9.90;;;5.18;;
75608;SDS011;64194;51.044;13.780;2023-04-25T05:43:24;9.07;;;4.68;;
75608;SDS011;64194;51.044;13.780;2023-04-25T05:47:43;8.40;;;4.40;;
75608;SDS011;64194;51.044;13.780;2023-04-25T05:52:00;7.88;;;4.70;;
75608;SDS011;64194;51.044;13.780;2023-04-25T05:56:20;6.18;;;3.80;;
75608;SDS011;64194;51.044;13.780;2023-04-25T06:10:16;12.63;;;4.55;;
75608;SDS011;64194;51.044;13.780;2023-04-25T06:14:18;8.75;;;4.72;;
75608;SDS011;64194;51.044;13.780;2023-04-25T06:23:15;8.50;;;4.18;;
75608;SDS011;64194;51.044;13.780;2023-04-25T06:27:31;9.90;;;4.80;;
75608;SDS011;64194;51.044;13.780;2023-04-25T06:31:33;9.65;;;5.05;;
75608;SDS011;64194;51.044;13.780;2023-04-25T06:35:35;8.57;;;4.38;;
75608;SDS011;64194;51.044;13.780;2023-04-25T06:39:40;10.50;;;4.93;;
75608;SDS011;64194;51.044;13.780;2023-04-25T06:43:42;8.23;;;4.88;;
75608;SDS011;64194;51.044;13.780;2023-04-25T06:48:04;9.77;;;4.50;;
75608;SDS011;64194;51.044;13.780;2023-04-25T06:52:06;13.00;;;5.00;;
75608;SDS011;64194;51.044;13.780;2023-04-25T06:56:09;9.60;;;4.40;;
75608;SDS011;64194;51.044;13.780;2023-04-25T07:00:29;9.48;;;4.40;;
75608;SDS011;64194;51.044;13.780;2023-04-25T07:14:15;7.60;;;4.43;;
75608;SDS011;64194;51.044;13.780;2023-04-25T07:18:17;8.32;;;4.05;;
75608;SDS011;64194;51.044;13.780;2023-04-25T07:22:18;8.93;;;4.30;;
75608;SDS011;64194;51.044;13.780;2023-04-25T07:26:20;9.48;;;4.35;;
75608;SDS011;64194;51.044;13.780;2023-04-25T07:30:40;8.60;;;3.95;;
75608;SDS011;64194;51.044;13.780;2023-04-25T07:34:42;7.60;;;3.92;;
75608;SDS011;64194;51.044;13.780;2023-04-25T07:38:44;8.52;;;3.63;;
75608;SDS011;64194;51.044;13.780;2023-04-25T07:47:32;8.63;;;3.97;;
75608;SDS011;64194;51.044;13.780;2023-04-25T08:01:59;6.20;;;2.95;;
75608;SDS011;64194;51.044;13.780;2023-04-25T08:06:02;5.18;;;2.92;;
75608;SDS011;64194;51.044;13.780;2023-04-25T08:10:15;6.32;;;2.83;;
75608;SDS011;64194;51.044;13.780;2023-04-25T08:14:17;6.25;;;2.50;;
75608;SDS011;64194;51.044;13.780;2023-04-25T08:28:47;5.93;;;2.83;;
75608;SDS011;64194;51.044;13.780;2023-04-25T08:32:49;9.07;;;3.30;;
75608;SDS011;64194;51.044;13.780;2023-04-25T08:37:14;4.47;;;2.08;;
75608;SDS011;64194;51.044;13.780;2023-04-25T08:41:27;6.20;;;2.85;;
75608;SDS011;64194;51.044;13.780;2023-04-25T08:45:29;6.90;;;2.45;;
75608;SDS011;64194;51.044;13.780;2023-04-25T08:49:34;9.07;;;3.03;;
75608;SDS011;64194;51.044;13.780;2023-04-25T08:53:37;7.05;;;2.70;;
75608;SDS011;64194;51.044;13.780;2023-04-25T08:57:41;5.40;;;2.55;;
75608;SDS011;64194;51.044;13.780;2023-04-25T09:21:39;5.55;;;3.42;;
75608;SDS011;64194;51.044;13.780;2023-04-25T09:25:40;6.78;;;2.67;;
75608;SDS011;64194;51.044;13.780;2023-04-25T09:29:44;5.05;;;3.05;;
75608;SDS011;64194;51.044;13.780;2023-04-25T09:33:47;6.97;;;3.60;;
75608;SDS011;64194;51.044;13.780;2023-04-25T09:37:51;7.30;;;3.00;;
75608;SDS011;64194;51.044;13.780;2023-04-25T09:42:14;5.40;;;2.90;;
75608;SDS011;64194;51.044;13.780;2023-04-25T09:46:17;7.25;;;3.50;;
75608;SDS011;64194;51.044;13.780;2023-04-25T09:50:26;7.25;;;3.90;;
75608;SDS011;64194;51.044;13.780;2023-04-25T09:54:37;7.05;;;4.03;;
75608;SDS011;64194;51.044;13.780;2023-04-25T09:58:49;9.00;;;4.60;;
75608;SDS011;64194;51.044;13.780;2023-04-25T10:02:55;7.22;;;4.30;;
75608;SDS011;64194;51.044;13.780;2023-04-25T10:07:22;7.32;;;4.22;;
75608;SDS011;64194;51.044;13.780;2023-04-25T10:11:27;10.82;;;5.25;;
75608;SDS011;64194;51.044;13.780;2023-04-25T10:15:30;6.82;;;4.15;;
75608;SDS011;64194;51.044;13.780;2023-04-25T10:19:34;8.27;;;3.53;;
75608;SDS011;64194;51.044;13.780;2023-04-25T10:23:36;10.10;;;3.53;;
75608;SDS011;64194;51.044;13.780;2023-04-25T10:27:41;6.60;;;3.03;;
75608;SDS011;64194;51.044;13.780;2023-04-25T10:31:46;6.90;;;3.20;;
75608;SDS011;64194;51.044;13.780;2023-04-25T10:35:48;5.03;;;3.08;;
75608;SDS011;64194;51.044;13.780;2023-04-25T10:39:50;7.13;;;3.58;;
75608;SDS011;64194;51.044;13.780;2023-04-25T10:43:59;6.30;;;3.50;;
75608;SDS011;64194;51.044;13.780;2023-04-25T10:48:03;7.82;;;3.28;;
75608;SDS011;64194;51.044;13.780;2023-04-25T10:56:19;6.40;;;3.33;;
75608;SDS011;64194;51.044;13.780;2023-04-25T11:00:22;6.80;;;3.85;;
75608;SDS011;64194;51.044;13.780;2023-04-25T11:04:43;6.63;;;3.60;;
75608;SDS011;64194;51.044;13.780;2023-04-25T11:08:47;8.13;;;4.32;;
75608;SDS011;64194;51.044;13.780;2023-04-25T11:12:51;7.90;;;3.80;;
75608;SDS011;64194;51.044;13.780;2023-04-25T11:26:43;9.63;;;3.95;;
75608;SDS011;64194;51.044;13.780;2023-04-25T11:30:48;7.25;;;3.67;;
75608;SDS011;64194;51.044;13.780;2023-04-25T11:34:52;6.68;;;3.20;;
75608;SDS011;64194;51.044;13.780;2023-04-25T11:38:53;6.80;;;2.58;;
75608;SDS011;64194;51.044;13.780;2023-04-25T11:52:40;3.90;;;2.20;;
75608;SDS011;64194;51.044;13.780;2023-04-25T11:56:48;5.13;;;2.00;;
75608;SDS011;64194;51.044;13.780;2023-04-25T12:00:50;5.70;;;1.80;;
75608;SDS011;64194;51.044;13.780;2023-04-25T12:05:12;5.05;;;1.50;;
75608;SDS011;64194;51.044;13.780;2023-04-25T12:09:34;4.57;;;1.70;;
75608;SDS011;64194;51.044;13.780;2023-04-25T12:13:36;5.47;;;2.45;;
75608;SDS011;64194;51.044;13.780;2023-04-25T12:17:39;5.13;;;2.00;;
75608;SDS011;64194;51.044;13.780;2023-04-25T12:21:41;6.25;;;2.17;;
75608;SDS011;64194;51.044;13.780;2023-04-25T12:26:06;6.03;;;2.40;;
75608;SDS011;64194;51.044;13.780;2023-04-25T12:34:47;7.45;;;2.72;;
75608;SDS011;64194;51.044;13.780;2023-04-25T12:38:53;6.38;;;2.63;;
75608;SDS011;64194;51.044;13.780;2023-04-25T12:42:55;8.15;;;2.90;;
75608;SDS011;64194;51.044;13.780;2023-04-25T12:46:58;11.75;;;2.60;;
75608;SDS011;64194;51.044;13.780;2023-04-25T12:51:21;5.95;;;1.70;;
75608;SDS011;64194;51.044;13.780;2023-04-25T12:55:26;7.10;;;3.00;;
75608;SDS011;64194;51.044;13.780;2023-04-25T12:59:28;7.00;;;2.83;;
75608;SDS011;64194;51.044;13.780;2023-04-25T13:03:33;10.35;;;3.15;;
75608;SDS011;64194;51.044;13.780;2023-04-25T13:07:36;7.80;;;3.17;;
75608;SDS011;64194;51.044;13.780;2023-04-25T13:11:43;6.57;;;3.28;;
75608;SDS011;64194;51.044;13.780;2023-04-25T13:15:45;8.10;;;3.05;;
75608;SDS011;64194;51.044;13.780;2023-04-25T13:19:53;9.85;;;3.28;;
75608;SDS011;64194;51.044;13.780;2023-04-25T13:23:55;9.05;;;3.75;;
75608;SDS011;64194;51.044;13.780;2023-04-25T13:33:50;10.27;;;3.03;;
75608;SDS011;64194;51.044;13.780;2023-04-25T13:38:08;7.75;;;3.25;;
75608;SDS011;64194;51.044;13.780;2023-04-25T13:42:10;9.90;;;4.22;;
75608;SDS011;64194;51.044;13.780;2023-04-25T13:46:31;12.27;;;4.05;;
75608;SDS011;64194;51.044;13.780;2023-04-25T13:50:48;8.50;;;3.47;;
75608;SDS011;64194;51.044;13.780;2023-04-25T13:54:51;10.07;;;3.10;;
75608;SDS011;64194;51.044;13.780;2023-04-25T13:58:55;8.73;;;3.20;;
75608;SDS011;64194;51.044;13.780;2023-04-25T14:03:05;7.50;;;2.97;;
75608;SDS011;64194;51.044;13.780;2023-04-25T14:16:29;8.70;;;3.67;;
75608;SDS011;64194;51.044;13.780;2023-04-25T14:20:39;9.27;;;4.05;;
75608;SDS011;64194;51.044;13.780;2023-04-25T14:24:41;11.32;;;3.95;;
75608;SDS011;64194;51.044;13.780;2023-04-25T14:34:43;11.23;;;3.80;;
75608;SDS011;64194;51.044;13.780;2023-04-25T14:38:44;6.68;;;3.20;;
75608;SDS011;64194;51.044;13.780;2023-04-25T14:42:46;10.80;;;4.10;;
75608;SDS011;64194;51.044;13.780;2023-04-25T14:46:47;8.23;;;3.55;;
75608;SDS011;64194;51.044;13.780;2023-04-25T14:50:49;9.00;;;3.13;;
75608;SDS011;64194;51.044;13.780;2023-04-25T14:54:50;6.35;;;3.60;;
75608;SDS011;64194;51.044;13.780;2023-04-25T15:08:13;7.60;;;3.00;;
75608;SDS011;64194;51.044;13.780;2023-04-25T15:17:07;7.18;;;3.08;;
75608;SDS011;64194;51.044;13.780;2023-04-25T15:21:09;9.18;;;3.17;;
75608;SDS011;64194;51.044;13.780;2023-04-25T15:25:11;8.30;;;2.80;;
75608;SDS011;64194;51.044;13.780;2023-04-25T15:29:13;6.93;;;2.50;;
75608;SDS011;64194;51.044;13.780;2023-04-25T15:33:14;7.05;;;2.13;;
75608;SDS011;64194;51.044;13.780;2023-04-25T15:37:16;5.55;;;2.25;;
75608;SDS011;64194;51.044;13.780;2023-04-25T15:41:19;7.13;;;1.98;;
75608;SDS011;64194;51.044;13.780;2023-04-25T15:54:48;6.13;;;1.50;;
75608;SDS011;64194;51.044;13.780;2023-04-25T16:08:18;9.07;;;1.77;;
75608;SDS011;64194;51.044;13.780;2023-04-25T16:12:22;5.30;;;2.05;;
75608;SDS011;64194;51.044;13.780;2023-04-25T16:16:24;7.05;;;1.83;;
75608;SDS011;64194;51.044;13.780;2023-04-25T16:20:26;6.25;;;2.25;;
75608;SDS011;64194;51.044;13.780;2023-04-25T16:24:28;4.55;;;1.73;;
75608;SDS011;64194;51.044;13.780;2023-04-25T16:28:30;8.32;;;2.15;;
75608;SDS011;64194;51.044;13.780;2023-04-25T16:38:32;4.28;;;1.70;;
75608;SDS011;64194;51.044;13.780;2023-04-25T16:42:33;6.57;;;2.55;;
75608;SDS011;64194;51.044;13.780;2023-04-25T16:46:36;5.28;;;1.60;;
75608;SDS011;64194;51.044;13.780;2023-04-25T16:50:40;4.78;;;1.70;;
75608;SDS011;64194;51.044;13.780;2023-04-25T17:03:47;6.82;;;2.22;;
75608;SDS011;64194;51.044;13.780;2023-04-25T17:07:52;9.38;;;2.88;;
75608;SDS011;64194;51.044;13.780;2023-04-25T17:11:57;6.80;;;2.45;;
75608;SDS011;64194;51.044;13.780;2023-04-25T17:15:59;8.57;;;3.00;;
75608;SDS011;64194;51.044;13.780;2023-04-25T17:20:17;9.18;;;2.50;;
75608;SDS011;64194;51.044;13.780;2023-04-25T17:24:18;12.15;;;3.03;;
75608;SDS011;64194;51.044;13.780;2023-04-25T17:28:22;7.80;;;2.70;;
75608;SDS011;64194;51.044;13.780;2023-04-25T17:46:47;6.20;;;2.35;;
75608;SDS011;64194;51.044;13.780;2023-04-25T17:50:50;6.90;;;2.40;;
75608;SDS011;64194;51.044;13.780;2023-04-25T18:04:00;10.00;;;3.17;;
75608;SDS011;64194;51.044;13.780;2023-04-25T18:08:11;7.63;;;3.00;;
75608;SDS011;64194;51.044;13.780;2023-04-25T18:22:03;6.40;;;2.40;;
75608;SDS011;64194;51.044;13.780;2023-04-25T18:26:05;7.13;;;2.20;;
75608;SDS011;64194;51.044;13.780;2023-04-25T18:30:07;6.47;;;2.60;;
75608;SDS011;64194;51.044;13.780;2023-04-25T18:43:28;7.35;;;2.25;;
75608;SDS011;64194;51.044;13.780;2023-04-25T18:47:32;6.70;;;2.13;;
75608;SDS011;64194;51.044;13.780;2023-04-25T18:51:34;6.55;;;2.35;;
75608;SDS011;64194;51.044;13.780;2023-04-25T18:55:37;6.32;;;2.42;;
75608;SDS011;64194;51.044;13.780;2023-04-25T18:59:58;8.32;;;2.30;;
75608;SDS011;64194;51.044;13.780;2023-04-25T19:04:26;5.53;;;1.77;;
75608;SDS011;64194;51.044;13.780;2023-04-25T19:08:42;8.30;;;2.42;;
75608;SDS011;64194;51.044;13.780;2023-04-25T19:12:48;5.47;;;2.05;;
75608;SDS011;64194;51.044;13.780;2023-04-25T19:16:50;6.38;;;2.47;;
75608;SDS011;64194;51.044;13.780;2023-04-25T19:20:55;5.53;;;1.92;;
75608;SDS011;64194;51.044;13.780;2023-04-25T19:24:56;6.85;;;2.35;;
75608;SDS011;64194;51.044;13.780;2023-04-25T19:29:12;7.15;;;2.13;;
75608;SDS011;64194;51.044;13.780;2023-04-25T19:33:31;8.25;;;2.28;;
75608;SDS011;64194;51.044;13.780;2023-04-25T19:37:33;7.18;;;2.40;;
75608;SDS011;64194;51.044;13.780;2023-04-25T19:41:35;4.25;;;1.70;;
75608;SDS011;64194;51.044;13.780;2023-04-25T19:45:39;6.13;;;2.05;;
75608;SDS011;64194;51.044;13.780;2023-04-25T19:53:48;6.47;;;2.13;;
75608;SDS011;64194;51.044;13.780;2023-04-25T19:58:10;7.53;;;1.77;;
75608;SDS011;64194;51.044;13.780;2023-04-25T20:02:11;6.78;;;2.22;;
75608;SDS011;64194;51.044;13.780;2023-04-25T20:06:33;5.05;;;2.20;;
75608;SDS011;64194;51.044;13.780;2023-04-25T20:19:45;11.95;;;2.70;;
75608;SDS011;64194;51.044;13.780;2023-04-25T20:24:02;6.32;;;2.08;;
75608;SDS011;64194;51.044;13.780;2023-04-25T20:32:35;6.20;;;2.20;;
75608;SDS011;64194;51.044;13.780;2023-04-25T20:36:59;8.48;;;2.22;;
75608;SDS011;64194;51.044;13.780;2023-04-25T21:13:40;4.28;;;1.90;;
75608;SDS011;64194;51.044;13.780;2023-04-25T21:23:35;5.18;;;1.65;;
75608;SDS011;64194;51.044;13.780;2023-04-25T21:27:36;4.50;;;1.45;;
75608;SDS011;64194;51.044;13.780;2023-04-25T21:31:38;6.32;;;1.52;;
75608;SDS011;64194;51.044;13.780;2023-04-25T21:35:40;6.65;;;1.77;;
75608;SDS011;64194;51.044;13.780;2023-04-25T21:39:42;5.00;;;1.75;;
75608;SDS011;64194;51.044;13.780;2023-04-25T21:43:43;4.18;;;1.52;;
75608;SDS011;64194;51.044;13.780;2023-04-25T21:47:45;5.65;;;1.67;;
75608;SDS011;64194;51.044;13.780;2023-04-25T21:58:16;5.63;;;1.67;;
75608;SDS011;64194;51.044;13.780;2023-04-25T22:02:37;4.07;;;1.58;;
75608;SDS011;64194;51.044;13.780;2023-04-25T22:06:42;4.97;;;1.38;;
75608;SDS011;64194;51.044;13.780;2023-04-25T22:10:43;4.50;;;1.40;;
75608;SDS011;64194;51.044;13.780;2023-04-25T22:14:49;5.05;;;1.63;;
75608;SDS011;64194;51.044;13.780;2023-04-25T22:18:55;7.80;;;1.60;;
75608;SDS011;64194;51.044;13.780;2023-04-25T22:22:57;6.90;;;1.83;;
75608;SDS011;64194;51.044;13.780;2023-04-25T22:27:18;5.13;;;1.55;;
75608;SDS011;64194;51.044;13.780;2023-04-25T22:31:20;4.70;;;1.85;;
75608;SDS011;64194;51.044;13.780;2023-04-25T22:35:25;7.47;;;1.75;;
75608;SDS011;64194;51.044;13.780;2023-04-25T22:39:33;5.13;;;1.52;;
75608;SDS011;64194;51.044;13.780;2023-04-25T22:43:38;7.55;;;3.40;;
75608;SDS011;64194;51.044;13.780;2023-04-25T22:47:40;9.27;;;2.80;;
75608;SDS011;64194;51.044;13.780;2023-04-25T22:51:42;6.68;;;2.65;;
75608;SDS011;64194;51.044;13.780;2023-04-25T23:05:31;5.82;;;2.08;;
75608;SDS011;64194;51.044;13.780;2023-04-25T23:09:47;6.60;;;1.70;;
75608;SDS011;64194;51.044;13.780;2023-04-25T23:14:11;5.55;;;1.65;;
75608;SDS011;64194;51.044;13.780;2023-04-25T23:18:12;5.07;;;2.13;;
75608;SDS011;64194;51.044;13.780;2023-04-25T23:22:15;6.55;;;2.40;;
75608;SDS011;64194;51.044;13.780;2023-04-25T23:26:17;7.25;;;2.28;;
75608;SDS011;64194;51.044;13.780;2023-04-25T23:30:33;5.68;;;1.80;;
75608;SDS011;64194;51.044;13.780;2023-04-25T23:34:34;8.60;;;2.50;;
75608;SDS011;64194;51.044;13.780;2023-04-25T23:38:36;7.57;;;2.30;;
75608;SDS011;64194;51.044;13.780;2023-04-25T23:42:38;13.13;;;5.50;;
75608;SDS011;64194;51.044;13.780;2023-04-25T23:46:45;4.45;;;2.30;;
75608;SDS011;64194;51.044;13.780;2023-04-25T23:50:46;4.63;;;2.40;;
75608;SDS011;64194;51.044;13.780;2023-04-25T23:54:49;4.63;;;1.77;;
75608;SDS011;64194;51.044;13.780;2023-04-25T23:58:51;5.55;;;2.25;;
